Harrisburg, SD (57032)

11:59 PM CDT on April 26, 2015 (GMT -0500)
Lewis Park | | Change Station
CLOSE
Current Station
Personal Weather Station
Location: Sioux Falls, SD
Elevation: 1500 ft
Nearby Weather Stations

Elev 1500 ft 43.50 °N, 96.70 °W | Updated 14 minutes ago

Clear
Clear
49.6 °F
Feels Like 50 °F
N
0.0
Wind Variable Wind from ESE

Today
High -- | Low -- °F
--% Chance of Precip.
Yesterday
High -- | Low -- °F
Precip. -- in
6:27 AM 8:22 PM
First Quarter, 61% visible
Pressure 30.12 in
Visibility 10.0 miles
Clouds Clear
Windchill 50 °F
Dew Point 28 °F
Humidity 43%
Rainfall 0.00 in
Snow Depth Not available.
UV 0 out of 12
Pollen 10.50 out of 12
Air Quality Not available.
Flu Activity Sporadic
METAR KFSD 270356Z 02005KT 10SM CLR 09/M01 A3011 RMK AO2 SLP199 T00891006

More Conditions Fewer Conditions

Pressure 30.12 in
Visibility 10.0 miles
Clouds Clear
Windchill 50 °F
Dew Point 28 °F
Humidity 43%
Rainfall 0.00 in
Snow Depth Not available.
UV 0 out of 12
Pollen 10.50 out of 12
Air Quality Not available.
Flu Activity Sporadic
METAR KFSD 270356Z 02005KT 10SM CLR 09/M01 A3011 RMK AO2 SLP199 T00891006

More Conditions Fewer Conditions

The full scope of the disaster following a powerful 7.8-magnitude earthquake in Nepal may not come into view for days, but global charities are already sending emergency aid. Click to see how you can help.

10-Day Weather Forecast

Almanac

Astronomy

Apr. 26, 2015 Rise Set
Actual Time
Civil Twilight
Nautical Twilight
Astronomical Twilight
Moon
Length of Visible Light
Length of Day
Tomorrow will be .
, % of the Moon is Illuminated

Today's Extremes

State Highs State Lows

Community

WunderPhotos

Upload Photos

1,817,264 photos uploaded!

WunderBlogs® & News

Nearby

Air Quality

  Air Quality AQ Index Pollutant
Not available.

Snow Depth

Station Depth Elevation

Earthquake Activity

City Distance Mag. Time & Date
Minimum magnitude displayed is 2.5.

Coastal Water Temperatures

Place Temperature

Stations

Nearby Weather Stations

Station Location Temp. Windchill Dew Point Humidity Wind Precip. Elev Updated Type